sensor_id;sensor_type;location;lat;lon;timestamp;temperature;humidity
49327;DHT22;35819;44.498;0.166;2022-12-07T09:59:05;18.30;65.70
49327;DHT22;35819;44.498;0.166;2022-12-07T10:04:44;18.90;63.80
49327;DHT22;35819;44.498;0.166;2022-12-07T10:07:10;19.20;62.60
49327;DHT22;35819;44.498;0.166;2022-12-07T10:09:35;19.40;61.70
49327;DHT22;35819;44.498;0.166;2022-12-07T10:12:08;19.50;60.90
49327;DHT22;35819;44.498;0.166;2022-12-07T10:14:37;19.70;60.70
49327;DHT22;35819;44.498;0.166;2022-12-07T10:22:37;20.40;58.50
49327;DHT22;35819;44.498;0.166;2022-12-07T10:25:18;20.70;58.20
49327;DHT22;35819;44.498;0.166;2022-12-07T10:27:57;20.90;57.10
49327;DHT22;35819;44.498;0.166;2022-12-07T10:30:23;21.10;56.70
49327;DHT22;35819;44.498;0.166;2022-12-07T10:32:49;21.50;56.20
49327;DHT22;35819;44.498;0.166;2022-12-07T10:35:29;21.80;55.20
49327;DHT22;35819;44.498;0.166;2022-12-07T10:37:58;21.90;54.50
49327;DHT22;35819;44.498;0.166;2022-12-07T10:40:35;21.80;54.50
49327;DHT22;35819;44.498;0.166;2022-12-07T10:45:30;21.80;53.90
49327;DHT22;35819;44.498;0.166;2022-12-07T10:48:00;21.90;53.80
49327;DHT22;35819;44.498;0.166;2022-12-07T10:53:05;22.30;53.10
49327;DHT22;35819;44.498;0.166;2022-12-07T11:01:03;22.70;51.90
49327;DHT22;35819;44.498;0.166;2022-12-07T11:03:58;22.80;52.00
49327;DHT22;35819;44.498;0.166;2022-12-07T11:06:46;23.00;51.50
49327;DHT22;35819;44.498;0.166;2022-12-07T11:09:40;23.00;51.50
49327;DHT22;35819;44.498;0.166;2022-12-07T11:34:09;22.90;49.00
49327;DHT22;35819;44.498;0.166;2022-12-07T11:36:44;22.70;49.20
49327;DHT22;35819;44.498;0.166;2022-12-07T11:41:48;22.80;49.40
49327;DHT22;35819;44.498;0.166;2022-12-07T11:46:49;22.50;49.80
49327;DHT22;35819;44.498;0.166;2022-12-07T11:49:27;22.80;49.50
49327;DHT22;35819;44.498;0.166;2022-12-07T11:52:02;23.00;49.20
49327;DHT22;35819;44.498;0.166;2022-12-07T11:54:34;23.30;48.80
49327;DHT22;35819;44.498;0.166;2022-12-07T11:57:10;23.20;48.70
49327;DHT22;35819;44.498;0.166;2022-12-07T11:59:47;23.30;48.50
49327;DHT22;35819;44.498;0.166;2022-12-07T12:02:22;23.30;48.30
49327;DHT22;35819;44.498;0.166;2022-12-07T12:05:11;23.00;48.80
49327;DHT22;35819;44.498;0.166;2022-12-07T12:07:39;22.60;49.10
49327;DHT22;35819;44.498;0.166;2022-12-07T12:10:06;21.90;50.10
49327;DHT22;35819;44.498;0.166;2022-12-07T12:13:02;21.80;50.20
49327;DHT22;35819;44.498;0.166;2022-12-07T12:15:40;21.60;50.40
49327;DHT22;35819;44.498;0.166;2022-12-07T12:18:31;21.50;50.60
49327;DHT22;35819;44.498;0.166;2022-12-07T12:21:06;21.30;50.90
49327;DHT22;35819;44.498;0.166;2022-12-07T12:23:47;21.20;50.90
49327;DHT22;35819;44.498;0.166;2022-12-07T12:26:18;21.10;51.30
49327;DHT22;35819;44.498;0.166;2022-12-07T12:33:57;22.10;50.20
49327;DHT22;35819;44.498;0.166;2022-12-07T12:36:24;22.20;50.00
49327;DHT22;35819;44.498;0.166;2022-12-07T12:51:44;21.20;51.20
49327;DHT22;35819;44.498;0.166;2022-12-07T12:54:22;21.30;51.30
49327;DHT22;35819;44.498;0.166;2022-12-07T12:57:15;21.40;51.10
49327;DHT22;35819;44.498;0.166;2022-12-07T13:02:48;22.40;50.20
49327;DHT22;35819;44.498;0.166;2022-12-07T13:05:16;22.60;49.50
49327;DHT22;35819;44.498;0.166;2022-12-07T13:18:42;23.40;48.60
49327;DHT22;35819;44.498;0.166;2022-12-07T13:26:36;23.30;48.80
49327;DHT22;35819;44.498;0.166;2022-12-07T13:31:39;23.30;48.70
49327;DHT22;35819;44.498;0.166;2022-12-07T13:34:26;23.80;48.20
49327;DHT22;35819;44.498;0.166;2022-12-07T13:36:51;24.10;47.90
49327;DHT22;35819;44.498;0.166;2022-12-07T13:39:22;24.70;47.50
49327;DHT22;35819;44.498;0.166;2022-12-07T13:41:56;24.70;47.30
49327;DHT22;35819;44.498;0.166;2022-12-07T13:44:27;24.20;47.60
49327;DHT22;35819;44.498;0.166;2022-12-07T13:49:49;24.20;47.80
49327;DHT22;35819;44.498;0.166;2022-12-07T13:52:20;24.60;47.30
49327;DHT22;35819;44.498;0.166;2022-12-07T13:54:59;24.80;46.80
49327;DHT22;35819;44.498;0.166;2022-12-07T13:57:26;25.10;46.60
49327;DHT22;35819;44.498;0.166;2022-12-07T13:59:53;25.50;46.10
49327;DHT22;35819;44.498;0.166;2022-12-07T14:02:22;25.50;45.60
49327;DHT22;35819;44.498;0.166;2022-12-07T14:04:50;25.60;46.20
49327;DHT22;35819;44.498;0.166;2022-12-07T14:07:28;25.20;45.90
49327;DHT22;35819;44.498;0.166;2022-12-07T14:09:57;25.10;46.00
49327;DHT22;35819;44.498;0.166;2022-12-07T14:12:24;24.70;46.20
49327;DHT22;35819;44.498;0.166;2022-12-07T14:14:50;24.30;46.90
49327;DHT22;35819;44.498;0.166;2022-12-07T14:17:22;24.20;47.10
49327;DHT22;35819;44.498;0.166;2022-12-07T14:22:26;23.90;47.20
49327;DHT22;35819;44.498;0.166;2022-12-07T14:25:22;23.00;48.10
49327;DHT22;35819;44.498;0.166;2022-12-07T14:28:26;21.00;50.50
49327;DHT22;35819;44.498;0.166;2022-12-07T14:30:55;18.90;53.40
49327;DHT22;35819;44.498;0.166;2022-12-07T14:33:24;17.80;55.30
49327;DHT22;35819;44.498;0.166;2022-12-07T14:35:50;16.80;56.90
49327;DHT22;35819;44.498;0.166;2022-12-07T14:38:21;16.10;59.00
49327;DHT22;35819;44.498;0.166;2022-12-07T14:41:19;15.30;60.30
49327;DHT22;35819;44.498;0.166;2022-12-07T14:44:40;14.60;61.80
49327;DHT22;35819;44.498;0.166;2022-12-07T14:48:01;14.00;63.20
49327;DHT22;35819;44.498;0.166;2022-12-07T14:50:58;13.50;64.30
